createdAt,value
2023-03-17T00:01:14.641Z,99.69
2023-03-17T00:08:05.538Z,100.00
2023-03-17T00:14:48.426Z,100.00
2023-03-17T00:21:33.205Z,100.00
2023-03-17T00:28:22.932Z,100.00
2023-03-17T00:35:14.909Z,100.00
2023-03-17T00:41:58.185Z,100.00
2023-03-17T00:48:43.160Z,100.00
2023-03-17T00:55:27.134Z,100.00
2023-03-17T01:02:13.301Z,100.00
2023-03-17T01:08:55.960Z,100.00
2023-03-17T01:15:45.517Z,100.00
2023-03-17T01:22:27.754Z,100.00
2023-03-17T01:29:10.102Z,100.00
2023-03-17T01:35:52.521Z,100.00
2023-03-17T01:42:35.569Z,100.00
2023-03-17T01:49:37.468Z,100.00
2023-03-17T01:56:20.431Z,100.00
2023-03-17T02:03:04.396Z,100.00
2023-03-17T02:09:47.530Z,100.00
2023-03-17T02:16:31.733Z,100.00
2023-03-17T02:23:25.722Z,100.00
2023-03-17T02:30:11.893Z,100.00
2023-03-17T02:36:54.254Z,100.00
2023-03-17T02:43:37.397Z,100.00
2023-03-17T02:50:24.510Z,100.00
2023-03-17T02:57:08.441Z,100.00
2023-03-17T03:03:50.760Z,100.00
2023-03-17T03:10:33.061Z,100.00
2023-03-17T03:17:16.002Z,100.00
2023-03-17T03:23:58.312Z,100.00
2023-03-17T03:30:41.665Z,100.00
2023-03-17T03:37:23.872Z,100.00
2023-03-17T03:44:06.468Z,100.00
2023-03-17T03:50:48.839Z,100.00
2023-03-17T03:57:31.026Z,100.00
2023-03-17T04:04:13.248Z,100.00
2023-03-17T04:10:55.724Z,100.00
2023-03-17T04:17:38.169Z,100.00
2023-03-17T04:24:20.331Z,100.00
2023-03-17T04:31:02.648Z,100.00
2023-03-17T04:37:45.667Z,100.00
2023-03-17T04:44:28.165Z,100.00
2023-03-17T04:51:11.790Z,100.00
2023-03-17T04:57:54.346Z,100.00
2023-03-17T05:04:36.526Z,100.00
2023-03-17T05:11:19.386Z,100.00
2023-03-17T05:18:03.301Z,100.00
2023-03-17T05:24:47.636Z,100.00
2023-03-17T05:31:31.085Z,100.00
2023-03-17T05:38:16.041Z,100.00
2023-03-17T05:44:58.611Z,100.00
2023-03-17T05:51:41.937Z,100.00
2023-03-17T05:58:24.110Z,100.00
2023-03-17T06:05:08.938Z,100.00
2023-03-17T06:11:51.335Z,100.00
2023-03-17T06:18:33.588Z,100.00
2023-03-17T06:25:15.928Z,100.00
2023-03-17T06:32:03.652Z,100.00
2023-03-17T06:38:51.681Z,100.00
2023-03-17T06:45:34.257Z,100.00
2023-03-17T06:52:16.774Z,100.00
2023-03-17T06:58:59.460Z,100.00
2023-03-17T07:05:42.648Z,100.00
2023-03-17T07:12:24.880Z,100.00
2023-03-17T07:19:07.630Z,100.00
2023-03-17T07:25:50.767Z,100.00
2023-03-17T07:32:33.263Z,100.00
2023-03-17T07:39:15.679Z,100.00
2023-03-17T07:45:58.174Z,100.00
2023-03-17T07:52:41.080Z,100.00
2023-03-17T07:59:24.004Z,100.00
2023-03-17T08:06:06.716Z,100.00
2023-03-17T08:12:51.959Z,100.00
2023-03-17T08:19:34.189Z,100.00
2023-03-17T08:26:16.715Z,100.00
2023-03-17T08:32:59.227Z,100.00
2023-03-17T08:39:41.510Z,99.51
2023-03-17T08:46:28.858Z,98.67
2023-03-17T08:53:11.956Z,98.37
2023-03-17T08:59:54.399Z,97.42
2023-03-17T09:06:38.724Z,95.41
2023-03-17T09:13:22.024Z,93.27
2023-03-17T09:20:06.823Z,92.57
2023-03-17T09:26:48.912Z,86.92
2023-03-17T09:33:31.762Z,85.21
2023-03-17T09:40:19.500Z,83.49
2023-03-17T09:47:42.926Z,80.12
2023-03-17T09:54:34.644Z,78.88
2023-03-17T10:01:16.987Z,77.31
2023-03-17T10:08:29.641Z,74.30
2023-03-17T10:15:24.252Z,73.62
2023-03-17T10:22:43.446Z,71.59
2023-03-17T10:29:25.635Z,70.63
2023-03-17T10:36:15.773Z,69.40
2023-03-17T10:43:08.679Z,66.96
2023-03-17T10:49:54.936Z,65.53
2023-03-17T10:56:42.421Z,64.40
2023-03-17T11:03:29.978Z,63.84
2023-03-17T11:10:40.281Z,63.42
2023-03-17T11:17:47.943Z,63.16
2023-03-17T11:24:33.633Z,61.87
2023-03-17T11:31:49.226Z,61.10
2023-03-17T11:39:11.054Z,59.74
2023-03-17T11:46:04.860Z,59.40
2023-03-17T11:53:21.097Z,60.13
2023-03-17T12:00:04.622Z,58.14
2023-03-17T12:07:04.628Z,57.57
2023-03-17T12:13:56.902Z,56.94
2023-03-17T12:20:54.592Z,54.70
2023-03-17T12:28:06.634Z,55.45
2023-03-17T12:35:06.039Z,55.74
2023-03-17T12:41:59.899Z,54.48
2023-03-17T12:49:01.277Z,52.57
2023-03-17T12:55:49.258Z,51.85
2023-03-17T13:02:38.657Z,51.18
2023-03-17T13:09:53.941Z,52.01
2023-03-17T13:16:41.295Z,52.07
2023-03-17T13:23:41.995Z,51.52
2023-03-17T13:30:26.313Z,51.09
2023-03-17T13:37:20.434Z,49.56
2023-03-17T13:44:39.010Z,48.30
2023-03-17T13:51:25.826Z,47.47
2023-03-17T13:58:10.842Z,47.57
2023-03-17T14:04:56.858Z,47.47
2023-03-17T14:11:41.386Z,46.74
2023-03-17T14:18:34.257Z,46.56
2023-03-17T14:25:26.782Z,46.98
2023-03-17T14:32:16.062Z,46.85
2023-03-17T14:38:58.329Z,47.21
2023-03-17T14:45:50.302Z,47.96
2023-03-17T14:52:35.690Z,47.90
2023-03-17T14:59:33.447Z,48.29
2023-03-17T15:06:28.283Z,48.18
2023-03-17T15:13:12.073Z,48.14
2023-03-17T15:19:58.110Z,48.68
2023-03-17T15:26:40.318Z,49.61
2023-03-17T15:33:42.913Z,49.49
2023-03-17T15:40:25.124Z,50.00
2023-03-17T15:47:07.846Z,50.36
2023-03-17T15:53:50.214Z,50.60
2023-03-17T16:00:33.400Z,51.28
2023-03-17T16:07:15.933Z,52.00
2023-03-17T16:13:59.958Z,52.79
2023-03-17T16:20:49.520Z,53.43
2023-03-17T16:27:31.763Z,53.88
2023-03-17T16:34:23.928Z,54.12
2023-03-17T16:41:28.372Z,54.28
2023-03-17T16:48:14.888Z,54.65
2023-03-17T16:54:57.390Z,54.39
2023-03-17T17:01:39.777Z,54.42
2023-03-17T17:08:22.487Z,54.71
2023-03-17T17:15:05.733Z,55.21
2023-03-17T17:21:47.931Z,56.16
2023-03-17T17:28:30.206Z,57.07
2023-03-17T17:35:14.682Z,57.84
2023-03-17T17:41:56.914Z,58.18
2023-03-17T17:48:39.353Z,58.15
2023-03-17T17:55:21.660Z,58.13
2023-03-17T18:02:04.093Z,58.15
2023-03-17T18:08:46.383Z,58.25
2023-03-17T18:15:28.741Z,58.27
2023-03-17T18:22:11.506Z,58.66
2023-03-17T18:28:53.593Z,59.06
2023-03-17T18:35:36.589Z,59.56
2023-03-17T18:42:18.774Z,59.86
2023-03-17T18:49:01.083Z,60.27
2023-03-17T18:55:43.320Z,60.52
2023-03-17T19:02:25.802Z,61.06
2023-03-17T19:09:09.670Z,61.60
2023-03-17T19:15:52.176Z,61.95
2023-03-17T19:22:35.043Z,62.19
2023-03-17T19:29:17.477Z,62.39
2023-03-17T19:36:02.712Z,62.69
2023-03-17T19:42:44.998Z,62.98
2023-03-17T19:49:27.354Z,63.19
2023-03-17T19:56:10.909Z,63.49
2023-03-17T20:02:53.196Z,63.71
2023-03-17T20:09:38.046Z,64.04
2023-03-17T20:16:20.338Z,64.16
2023-03-17T20:23:02.803Z,64.34
2023-03-17T20:29:46.507Z,64.18
2023-03-17T20:36:29.218Z,64.33
2023-03-17T20:43:11.526Z,64.42
2023-03-17T20:49:57.843Z,64.30
2023-03-17T20:56:40.458Z,64.36
2023-03-17T21:03:22.733Z,64.38
2023-03-17T21:10:05.274Z,64.18
2023-03-17T21:16:47.873Z,64.07
2023-03-17T21:23:29.987Z,64.03
2023-03-17T21:30:14.358Z,64.18
2023-03-17T21:36:57.442Z,64.19
2023-03-17T21:43:40.401Z,64.16
2023-03-17T21:50:23.154Z,63.97
2023-03-17T21:57:05.635Z,63.78
2023-03-17T22:03:49.446Z,63.46
2023-03-17T22:10:31.990Z,63.17
2023-03-17T22:17:14.923Z,63.33
2023-03-17T22:23:57.645Z,63.13
2023-03-17T22:30:39.892Z,63.22
2023-03-17T22:37:22.365Z,63.01
2023-03-17T22:44:04.741Z,63.10
2023-03-17T22:50:46.905Z,63.06
2023-03-17T22:57:29.105Z,63.02
2023-03-17T23:04:11.359Z,63.06
2023-03-17T23:10:54.026Z,63.21
2023-03-17T23:17:36.714Z,63.25
2023-03-17T23:24:21.056Z,63.11
2023-03-17T23:31:03.714Z,62.77
2023-03-17T23:37:46.532Z,62.94
2023-03-17T23:44:28.748Z,63.15
2023-03-17T23:51:12.734Z,63.43
2023-03-17T23:57:55.089Z,63.32
